Aviation Digital Data Service (ADDS)

Output produced by METARs form (0027 UTC 28 February 2021)
found at http://www.aviationweather.gov/metar/data/
 
METAR text: KFAT 272353Z 33015G24KT 10SM FEW080 18/M06 A3003 RMK AO2 SLP166 T01781056 10183 20111 56012
Conditions at: KFAT (FRESNO , CA, US) observed 2353 UTC 27 February 2021
Temperature: 17.8°C (64°F)
Dewpoint: -5.6°C (22°F) [RH = 20%]
Pressure (altimeter): 30.03 inches Hg (1017.0 mb)
[Sea-level pressure: 1016.6 mb]
Winds: from the NNW (330 degrees) at 17 MPH (15 knots; 7.7 m/s)
gusting to 28 MPH (24 knots; 12.3 m/s)
Visibility: 10 or more miles (16+ km)
Ceiling: at least 12,000 feet AGL
Clouds: few clouds at 8000 feet AGL
Weather: no significant weather observed at this time

Forecast for: KFAT (FRESNO , CA, US)
Text: KFAT 272320Z 2800/2824 32012KT P6SM SKC
Forecast period: 0000 to 0300 UTC 28 February 2021
Forecast type: FROM: standard forecast or significant change
Winds: from the NW (320 degrees) at 14 MPH (12 knots; 6.2 m/s)
Visibility: 6 or more miles (10+ km)
Clouds: clear skies
Weather: no significant weather forecast for this period
Text: FM280300 VRB04KT P6SM SKC
Forecast period: 0300 UTC 28 February 2021 to 0000 UTC 01 March 2021
Forecast type: FROM: standard forecast or significant change
Winds: variable direction winds at 5 MPH (4 knots; 2.1 m/s)
Visibility: 6 or more miles (10+ km)
Clouds: clear skies
Weather: no significant weather forecast for this period